Terminal Aerodrome Forecast
Issued by NWS Grand Forks, ND

Home | Current Version | Previous Version | Graphics & Text | Print | Product List | Glossary On
Versions: 1 2 3 4 5 6 7 8 9 10 11 12 13
000
FTUS43 KFGF 291136
TAFFAR
TAF
KFAR 291136Z 2912/3012 36004KT P6SM FEW060
     FM292000 21004KT P6SM BKN050
     FM300300 15004KT P6SM BKN060=

USA.gov is the U.S. government's official web portal to all federal, state and local government web resources and services.